createdAt,value
2019-02-26T00:00:47.017Z,65.46
2019-02-26T00:03:14.263Z,65.49
2019-02-26T00:05:43.528Z,66.10
2019-02-26T00:08:16.996Z,65.54
2019-02-26T00:10:43.787Z,65.77
2019-02-26T00:13:13.032Z,65.49
2019-02-26T00:15:43.200Z,65.92
2019-02-26T00:18:13.974Z,65.67
2019-02-26T00:20:44.410Z,65.43
2019-02-26T00:23:13.686Z,65.81
2019-02-26T00:25:42.934Z,66.08
2019-02-26T00:28:13.160Z,65.48
2019-02-26T00:30:43.198Z,65.53
2019-02-26T00:33:12.459Z,65.55
2019-02-26T00:35:43.778Z,66.81
2019-02-26T00:41:35.780Z,66.74
2019-02-26T00:44:06.539Z,67.96
2019-02-26T00:46:37.039Z,68.03
2019-02-26T00:49:07.650Z,67.90
2019-02-26T00:51:39.009Z,67.88
2019-02-26T00:54:08.091Z,67.47
2019-02-26T00:56:38.619Z,67.48
2019-02-26T00:59:08.352Z,66.90
2019-02-26T01:01:37.631Z,67.53
2019-02-26T01:04:07.229Z,66.90
2019-02-26T01:06:36.488Z,66.54
2019-02-26T01:09:10.708Z,66.68
2019-02-26T01:11:38.997Z,66.79
2019-02-26T01:14:08.243Z,67.72
2019-02-26T01:16:39.317Z,67.59
2019-02-26T01:19:10.338Z,68.12
2019-02-26T01:21:39.503Z,68.82
2019-02-26T01:24:08.751Z,68.91
2019-02-26T01:26:38.166Z,68.24
2019-02-26T01:29:07.416Z,68.08
2019-02-26T01:31:36.667Z,67.95
2019-02-26T01:34:05.933Z,68.46
2019-02-26T01:36:35.204Z,68.53
2019-02-26T01:39:09.310Z,69.19
2019-02-26T01:41:41.335Z,69.47
2019-02-26T01:44:09.014Z,68.64
2019-02-26T01:46:38.900Z,69.38
2019-02-26T01:49:09.604Z,68.98
2019-02-26T01:51:38.836Z,69.47
2019-02-26T01:54:09.951Z,68.46
2019-02-26T01:56:39.094Z,68.80
2019-02-26T01:59:08.335Z,69.17
2019-02-26T02:01:40.018Z,69.88
2019-02-26T02:04:10.501Z,69.46
2019-02-26T02:06:41.234Z,70.03
2019-02-26T02:09:13.262Z,69.91
2019-02-26T02:11:41.607Z,69.72
2019-02-26T02:14:12.633Z,69.47
2019-02-26T02:16:41.826Z,69.29
2019-02-26T02:19:15.511Z,69.19
2019-02-26T02:21:43.265Z,70.24
2019-02-26T02:24:13.279Z,69.88
2019-02-26T02:26:47.520Z,68.92
2019-02-26T02:29:16.535Z,69.03
2019-02-26T02:31:45.535Z,69.29
2019-02-26T02:34:15.694Z,69.22
2019-02-26T02:36:44.950Z,68.81
2019-02-26T02:39:15.657Z,68.76
2019-02-26T02:41:47.973Z,68.75
2019-02-26T02:44:17.948Z,69.63
2019-02-26T02:46:47.161Z,69.96
2019-02-26T02:49:17.904Z,69.96
2019-02-26T02:51:47.338Z,70.02
2019-02-26T02:54:18.597Z,69.59
2019-02-26T02:56:47.628Z,69.37
2019-02-26T02:59:16.883Z,69.44
2019-02-26T03:01:49.016Z,69.59
2019-02-26T03:04:19.500Z,69.65
2019-02-26T03:06:50.063Z,69.35
2019-02-26T03:09:19.693Z,69.18
2019-02-26T03:11:51.908Z,69.14
2019-02-26T03:14:20.080Z,68.90
2019-02-26T03:16:51.389Z,68.91
2019-02-26T03:19:20.307Z,69.06
2019-02-26T03:21:51.917Z,69.06
2019-02-26T03:24:25.054Z,70.01
2019-02-26T03:26:51.570Z,69.24
2019-02-26T03:29:20.838Z,69.29
2019-02-26T03:31:54.841Z,69.16
2019-02-26T03:34:25.150Z,69.68
2019-02-26T03:36:52.038Z,69.82
2019-02-26T03:39:21.341Z,69.61
2019-02-26T03:41:51.565Z,69.51
2019-02-26T03:44:21.568Z,69.31
2019-02-26T03:46:50.834Z,69.34
2019-02-26T03:49:20.092Z,70.30
2019-02-26T03:51:49.350Z,70.46
2019-02-26T03:54:18.623Z,71.04
2019-02-26T03:56:47.895Z,70.75
2019-02-26T03:59:17.138Z,70.61
2019-02-26T04:01:46.381Z,70.15
2019-02-26T04:04:15.747Z,70.36
2019-02-26T04:06:47.138Z,70.61
2019-02-26T04:09:17.243Z,70.83
2019-02-26T04:11:49.663Z,70.71
2019-02-26T04:14:20.161Z,71.27
2019-02-26T04:16:49.315Z,72.07
2019-02-26T04:19:18.656Z,71.42
2019-02-26T04:22:26.198Z,71.14
2019-02-26T04:25:00.663Z,71.53
2019-02-26T04:28:01.683Z,71.14
2019-02-26T04:31:02.592Z,71.42
2019-02-26T04:33:55.262Z,70.98
2019-02-26T04:37:01.430Z,70.70
2019-02-26T04:40:14.276Z,70.89
2019-02-26T04:43:30.420Z,71.70
2019-02-26T04:46:39.556Z,71.64
2019-02-26T04:49:08.495Z,71.07
2019-02-26T04:51:39.896Z,71.22
2019-02-26T04:54:08.735Z,71.20
2019-02-26T04:56:40.162Z,71.52
2019-02-26T04:59:09.827Z,72.00
2019-02-26T05:01:40.009Z,72.00
2019-02-26T05:04:09.247Z,72.08
2019-02-26T05:06:38.544Z,72.40
2019-02-26T05:09:08.494Z,71.71
2019-02-26T05:11:40.769Z,72.01
2019-02-26T05:14:11.684Z,71.71
2019-02-26T05:16:40.830Z,71.77
2019-02-26T05:19:10.609Z,71.74
2019-02-26T05:21:41.288Z,71.25
2019-02-26T05:24:13.062Z,71.34
2019-02-26T05:26:41.515Z,71.13
2019-02-26T05:29:13.393Z,71.21
2019-02-26T05:31:43.283Z,70.85
2019-02-26T05:34:15.207Z,70.56
2019-02-26T05:36:46.105Z,70.75
2019-02-26T05:39:18.078Z,70.42
2019-02-26T05:41:45.597Z,70.62
2019-02-26T05:44:14.969Z,70.35
2019-02-26T05:46:44.214Z,70.64
2019-02-26T05:49:16.183Z,71.01
2019-02-26T05:51:45.038Z,71.42
2019-02-26T05:54:17.980Z,72.12
2019-02-26T05:56:49.744Z,72.10
2019-02-26T05:59:21.811Z,72.03
2019-02-26T06:01:54.814Z,71.09
2019-02-26T06:04:23.584Z,71.07
2019-02-26T06:06:56.381Z,71.82
2019-02-26T06:09:28.551Z,72.09
2019-02-26T06:11:57.947Z,71.85
2019-02-26T06:14:31.232Z,71.54
2019-02-26T06:17:01.364Z,71.22
2019-02-26T06:19:57.614Z,71.63
2019-02-26T06:22:29.638Z,71.16
2019-02-26T06:25:02.817Z,69.59
2019-02-26T06:27:30.841Z,69.76
2019-02-26T06:30:03.169Z,70.26
2019-02-26T06:32:32.845Z,71.16
2019-02-26T06:35:06.128Z,71.07
2019-02-26T06:37:35.946Z,70.58
2019-02-26T06:40:07.482Z,71.48
2019-02-26T06:42:38.053Z,70.98
2019-02-26T06:45:10.887Z,70.86
2019-02-26T06:47:40.857Z,70.73
2019-02-26T06:50:13.182Z,70.51
2019-02-26T06:52:44.729Z,70.43
2019-02-26T06:55:13.972Z,70.11
2019-02-26T06:57:47.132Z,69.28
2019-02-26T07:00:26.999Z,69.13
2019-02-26T07:02:56.087Z,68.39
2019-02-26T07:05:25.338Z,67.45
2019-02-26T07:07:56.933Z,67.56
2019-02-26T07:10:28.263Z,66.88
2019-02-26T07:12:56.829Z,66.88
2019-02-26T07:15:28.773Z,66.86
2019-02-26T07:18:00.095Z,66.54
2019-02-26T07:20:34.167Z,66.09
2019-02-26T07:22:59.232Z,65.69
2019-02-26T07:25:28.486Z,65.04
2019-02-26T07:27:58.923Z,65.11
2019-02-26T07:30:28.764Z,64.66
2019-02-26T07:32:58.023Z,64.71
2019-02-26T07:35:28.754Z,63.18
2019-02-26T07:37:59.497Z,63.50
2019-02-26T07:40:30.533Z,62.89
2019-02-26T07:43:00.297Z,63.06
2019-02-26T07:45:30.392Z,63.22
2019-02-26T07:48:01.059Z,62.14
2019-02-26T07:50:36.932Z,61.25
2019-02-26T07:53:02.527Z,61.39
2019-02-26T07:55:32.871Z,60.62
2019-02-26T07:58:02.894Z,60.10
2019-02-26T08:00:32.878Z,59.62
2019-02-26T08:03:04.667Z,58.79
2019-02-26T08:05:34.084Z,58.28
2019-02-26T08:08:03.377Z,57.81
2019-02-26T08:10:35.171Z,57.04
2019-02-26T08:13:05.697Z,56.32
2019-02-26T08:15:35.228Z,54.81
2019-02-26T08:18:05.677Z,54.27
2019-02-26T08:20:35.691Z,53.92
2019-02-26T08:23:05.929Z,53.94
2019-02-26T08:25:35.204Z,54.35
2019-02-26T08:28:04.513Z,54.08
2019-02-26T08:30:33.765Z,53.16
2019-02-26T08:33:05.255Z,50.62
2019-02-26T08:35:34.102Z,46.62
2019-02-26T08:38:05.653Z,44.37
2019-02-26T08:40:34.366Z,42.80
2019-02-26T08:43:03.641Z,39.94
2019-02-26T08:45:34.253Z,40.87
2019-02-26T08:48:03.528Z,44.62
2019-02-26T08:50:35.757Z,43.34
2019-02-26T08:53:03.793Z,44.80
2019-02-26T08:55:33.176Z,48.05
2019-02-26T08:58:02.491Z,48.41
2019-02-26T09:00:31.746Z,46.79
2019-02-26T09:03:01.013Z,46.07
2019-02-26T09:05:34.001Z,44.83
2019-02-26T09:08:01.322Z,43.87
2019-02-26T09:10:30.696Z,44.51
2019-02-26T09:13:00.016Z,42.95
2019-02-26T09:15:31.365Z,43.78
2019-02-26T09:18:00.309Z,45.24
2019-02-26T09:20:29.580Z,43.57
2019-02-26T09:23:01.331Z,44.37
2019-02-26T09:25:31.549Z,41.54
2019-02-26T09:28:02.037Z,40.65
2019-02-26T09:30:33.401Z,40.56
2019-02-26T09:33:03.384Z,40.68
2019-02-26T09:35:33.320Z,37.90
2019-02-26T09:38:02.630Z,38.06
2019-02-26T09:40:34.200Z,36.76
2019-02-26T09:43:02.865Z,38.03
2019-02-26T09:45:32.145Z,35.69
2019-02-26T09:48:01.427Z,36.14
2019-02-26T09:50:30.696Z,37.82
2019-02-26T09:52:59.965Z,37.17
2019-02-26T09:55:29.221Z,35.17
2019-02-26T09:57:58.533Z,35.84
2019-02-26T10:00:29.467Z,36.99
2019-02-26T10:02:58.994Z,33.96
2019-02-26T10:05:28.259Z,36.47
2019-02-26T10:08:00.031Z,35.68
2019-02-26T10:10:31.111Z,34.60
2019-02-26T10:13:02.181Z,33.39
2019-02-26T10:15:32.316Z,32.57
2019-02-26T10:18:04.865Z,31.50
2019-02-26T10:20:35.563Z,31.96
2019-02-26T10:23:06.457Z,31.50
2019-02-26T10:25:38.588Z,30.70
2019-02-26T10:28:09.648Z,30.56
2019-02-26T10:30:40.964Z,30.86
2019-02-26T10:33:09.259Z,31.73
2019-02-26T10:35:41.379Z,30.76
2019-02-26T10:38:11.526Z,30.86
2019-02-26T10:40:50.653Z,31.40
2019-02-26T10:43:11.590Z,29.64
2019-02-26T10:45:44.170Z,28.12
2019-02-26T10:48:13.707Z,27.79
2019-02-26T10:50:46.936Z,27.17
2019-02-26T10:53:18.879Z,27.82
2019-02-26T10:55:45.341Z,27.16
2019-02-26T10:58:14.942Z,26.67
2019-02-26T11:00:45.512Z,28.87
2019-02-26T11:03:15.463Z,29.22
2019-02-26T11:05:48.645Z,28.31
2019-02-26T11:08:16.816Z,28.59
2019-02-26T11:10:47.886Z,30.21
2019-02-26T11:13:18.226Z,29.63
2019-02-26T11:15:50.862Z,29.29
2019-02-26T11:18:21.132Z,28.82
2019-02-26T11:20:55.222Z,29.76
2019-02-26T11:23:30.360Z,29.77
2019-02-26T11:25:53.477Z,28.54
2019-02-26T11:28:27.258Z,28.87
2019-02-26T11:30:54.969Z,28.84
2019-02-26T11:33:25.045Z,29.82
2019-02-26T11:35:54.416Z,29.64
2019-02-26T11:38:23.681Z,29.69
2019-02-26T11:40:52.974Z,30.49
2019-02-26T11:43:23.919Z,29.85
2019-02-26T11:45:53.267Z,29.57
2019-02-26T11:48:23.369Z,29.07
2019-02-26T11:50:53.676Z,28.69
2019-02-26T11:53:22.965Z,28.26
2019-02-26T11:55:54.492Z,27.18
2019-02-26T11:58:24.265Z,26.95
2019-02-26T12:00:57.358Z,26.98
2019-02-26T12:03:31.088Z,26.19
2019-02-26T12:06:01.978Z,25.92
2019-02-26T12:08:30.391Z,26.57
2019-02-26T12:11:03.637Z,26.31
2019-02-26T12:13:30.684Z,25.84
2019-02-26T12:15:59.960Z,26.14
2019-02-26T12:18:29.249Z,24.92
2019-02-26T12:21:00.114Z,23.75
2019-02-26T12:23:29.511Z,24.52
2019-02-26T12:26:01.095Z,23.80
2019-02-26T12:28:34.155Z,24.42
2019-02-26T12:31:02.256Z,23.13
2019-02-26T12:33:32.562Z,23.92
2019-02-26T12:36:04.406Z,24.44
2019-02-26T12:38:36.590Z,24.14
2019-02-26T12:41:08.209Z,24.02
2019-02-26T12:43:36.624Z,23.74
2019-02-26T12:46:08.454Z,23.25
2019-02-26T12:48:40.488Z,24.10
2019-02-26T12:51:08.167Z,23.30
2019-02-26T12:53:49.061Z,23.67
2019-02-26T12:56:16.238Z,22.40
2019-02-26T12:58:48.467Z,21.72
2019-02-26T13:01:16.778Z,22.14
2019-02-26T13:03:49.764Z,21.84
2019-02-26T13:06:18.676Z,23.16
2019-02-26T13:08:50.506Z,24.34
2019-02-26T13:11:20.981Z,24.56
2019-02-26T13:13:52.596Z,24.69
2019-02-26T13:16:21.185Z,24.63
2019-02-26T13:18:51.667Z,25.84
2019-02-26T13:21:21.523Z,26.73
2019-02-26T13:23:50.810Z,27.52
2019-02-26T13:26:22.400Z,27.70
2019-02-26T13:28:52.950Z,27.98
2019-02-26T13:31:22.785Z,27.80
2019-02-26T13:33:52.383Z,28.12
2019-02-26T13:36:22.164Z,27.79
2019-02-26T13:38:51.481Z,28.13
2019-02-26T13:43:52.390Z,28.50
2019-02-26T13:46:21.746Z,28.35
2019-02-26T13:48:50.999Z,28.08
2019-02-26T13:51:20.282Z,29.02
2019-02-26T13:53:49.532Z,28.27
2019-02-26T13:56:18.842Z,28.27
2019-02-26T13:58:48.145Z,28.23
2019-02-26T14:01:17.562Z,28.46
2019-02-26T14:03:46.944Z,28.92
2019-02-26T14:06:16.235Z,28.39
2019-02-26T14:08:45.537Z,28.39
2019-02-26T14:11:14.864Z,27.71
2019-02-26T14:13:45.235Z,26.49
2019-02-26T14:16:14.543Z,25.86
2019-02-26T14:18:43.810Z,25.97
2019-02-26T14:21:13.370Z,26.57
2019-02-26T14:23:42.615Z,26.89
2019-02-26T14:26:11.984Z,27.24
2019-02-26T14:28:41.260Z,26.65
2019-02-26T14:31:10.527Z,25.62
2019-02-26T14:33:39.831Z,25.22
2019-02-26T14:36:10.910Z,25.79
2019-02-26T14:38:40.194Z,25.85
2019-02-26T14:41:09.519Z,25.55
2019-02-26T14:43:38.778Z,25.76
2019-02-26T14:46:08.079Z,25.69
2019-02-26T14:48:37.331Z,25.78
2019-02-26T14:51:06.654Z,25.37
2019-02-26T14:53:35.919Z,24.88
2019-02-26T14:56:05.458Z,25.94
2019-02-26T14:58:34.775Z,26.56
2019-02-26T15:01:04.341Z,26.84
2019-02-26T15:03:33.644Z,26.38
2019-02-26T15:06:02.910Z,26.49
2019-02-26T15:08:32.227Z,26.34
2019-02-26T15:11:01.499Z,26.09
2019-02-26T15:13:30.752Z,26.38
2019-02-26T15:16:00.045Z,26.59
2019-02-26T15:18:29.314Z,26.56
2019-02-26T15:20:58.644Z,26.20
2019-02-26T15:23:27.908Z,26.31
2019-02-26T15:25:57.175Z,26.42
2019-02-26T15:28:26.469Z,26.59
2019-02-26T15:30:55.946Z,26.53
2019-02-26T15:33:25.206Z,26.51
2019-02-26T15:35:54.467Z,26.79
2019-02-26T15:38:23.765Z,26.83
2019-02-26T15:40:53.358Z,27.00
2019-02-26T15:43:24.508Z,27.53
2019-02-26T15:45:53.801Z,27.78
2019-02-26T15:48:23.062Z,28.26
2019-02-26T15:50:52.350Z,28.22
2019-02-26T15:53:23.779Z,27.86
2019-02-26T15:55:52.695Z,27.82
2019-02-26T15:58:21.949Z,27.91
2019-02-26T16:09:42.301Z,28.93
2019-02-26T16:12:11.560Z,29.33
2019-02-26T16:14:40.846Z,29.55
2019-02-26T16:17:10.766Z,29.70
2019-02-26T16:19:40.534Z,29.99
2019-02-26T16:22:13.285Z,30.49
2019-02-26T16:24:44.843Z,30.67
2019-02-26T16:27:16.866Z,30.82
2019-02-26T16:30:10.021Z,31.18
2019-02-26T16:32:40.478Z,31.53
2019-02-26T16:35:12.386Z,31.66
2019-02-26T16:37:44.613Z,32.14
2019-02-26T16:40:16.353Z,32.73
2019-02-26T16:42:47.828Z,32.77
2019-02-26T16:45:20.814Z,32.62
2019-02-26T16:47:52.215Z,32.89
2019-02-26T16:50:24.115Z,33.67
2019-02-26T16:52:53.445Z,33.87
2019-02-26T16:55:22.735Z,33.98
2019-02-26T16:57:51.996Z,34.07
2019-02-26T17:00:22.516Z,34.38
2019-02-26T17:02:51.789Z,34.69
2019-02-26T17:05:21.108Z,35.40
2019-02-26T17:07:50.377Z,35.61
2019-02-26T17:10:19.916Z,35.29
2019-02-26T17:12:54.076Z,35.78
2019-02-26T17:15:26.980Z,35.89
2019-02-26T17:17:56.413Z,36.23
2019-02-26T17:20:26.474Z,36.52
2019-02-26T17:22:56.739Z,36.43
2019-02-26T17:25:28.399Z,36.58
2019-02-26T17:27:57.043Z,36.56
2019-02-26T17:30:29.454Z,37.15
2019-02-26T17:33:00.168Z,37.42
2019-02-26T17:35:29.731Z,37.47
2019-02-26T17:38:00.443Z,38.29
2019-02-26T17:40:30.806Z,38.59
2019-02-26T17:43:00.358Z,38.79
2019-02-26T17:45:29.665Z,39.21
2019-02-26T17:48:00.514Z,39.20
2019-02-26T17:50:31.892Z,39.85
2019-02-26T17:53:01.657Z,39.82
2019-02-26T17:55:31.579Z,39.93
2019-02-26T17:58:01.073Z,40.16
2019-02-26T18:00:36.394Z,40.40
2019-02-26T18:03:07.297Z,40.91
2019-02-26T18:05:47.274Z,40.91
2019-02-26T18:08:27.271Z,41.13
2019-02-26T18:10:57.181Z,41.29
2019-02-26T18:13:28.926Z,41.56
2019-02-26T18:15:59.224Z,41.37
2019-02-26T18:18:29.425Z,41.81
2019-02-26T18:20:59.160Z,42.20
2019-02-26T18:23:28.418Z,42.28
2019-02-26T18:25:57.874Z,42.01
2019-02-26T18:28:27.380Z,42.82
2019-02-26T18:30:56.673Z,42.74
2019-02-26T18:33:27.647Z,43.09
2019-02-26T18:35:56.934Z,43.54
2019-02-26T18:38:26.299Z,43.79
2019-02-26T18:40:55.684Z,43.62
2019-02-26T18:43:24.990Z,43.75
2019-02-26T18:45:56.210Z,43.84
2019-02-26T18:48:27.353Z,43.84
2019-02-26T18:50:59.668Z,43.94
2019-02-26T18:53:30.458Z,44.07
2019-02-26T18:56:04.294Z,44.29
2019-02-26T18:58:36.038Z,44.32
2019-02-26T19:01:06.719Z,45.05
2019-02-26T19:03:39.366Z,45.13
2019-02-26T19:06:10.909Z,45.46
2019-02-26T19:08:41.752Z,45.54
2019-02-26T19:11:16.686Z,45.59
2019-02-26T19:13:44.989Z,46.73
2019-02-26T19:16:21.179Z,46.42
2019-02-26T19:18:52.998Z,46.85
2019-02-26T19:21:23.873Z,46.87
2019-02-26T19:23:54.787Z,47.73
2019-02-26T19:26:25.695Z,47.99
2019-02-26T19:28:56.782Z,47.72
2019-02-26T19:31:28.869Z,47.13
2019-02-26T19:33:58.498Z,47.58
2019-02-26T19:36:34.938Z,48.00
2019-02-26T19:39:18.239Z,48.10
2019-02-26T19:41:55.609Z,48.36
2019-02-26T19:44:35.894Z,48.83
2019-02-26T19:47:15.968Z,48.76
2019-02-26T19:49:58.851Z,48.53
2019-02-26T19:52:57.204Z,48.84
2019-02-26T19:55:54.469Z,49.45
2019-02-26T19:58:34.165Z,48.92
2019-02-26T20:01:18.442Z,48.55
2019-02-26T20:04:02.858Z,49.21
2019-02-26T20:06:40.253Z,47.91
2019-02-26T20:09:41.615Z,47.58
2019-02-26T20:12:11.744Z,48.61
2019-02-26T20:14:42.390Z,48.82
2019-02-26T20:17:14.954Z,49.88
2019-02-26T20:19:46.212Z,49.68
2019-02-26T20:22:15.710Z,49.68
2019-02-26T20:24:48.235Z,49.68
2019-02-26T20:27:21.596Z,49.97
2019-02-26T20:29:48.650Z,50.47
2019-02-26T20:32:19.016Z,50.69
2019-02-26T20:34:49.874Z,50.20
2019-02-26T20:37:21.952Z,50.74
2019-02-26T20:39:53.800Z,50.59
2019-02-26T20:42:23.409Z,50.14
2019-02-26T20:44:59.015Z,50.19
2019-02-26T20:47:24.214Z,50.18
2019-02-26T20:49:54.039Z,50.78
2019-02-26T20:52:23.379Z,51.44
2019-02-26T20:54:52.699Z,51.19
2019-02-26T20:57:24.467Z,50.63
2019-02-26T20:59:53.803Z,50.73
2019-02-26T21:02:23.109Z,51.05
2019-02-26T21:04:53.827Z,51.68
2019-02-26T21:07:24.492Z,51.74
2019-02-26T21:10:03.339Z,51.93
2019-02-26T21:12:28.634Z,52.00
2019-02-26T21:14:56.212Z,52.14
2019-02-26T21:17:26.262Z,51.72
2019-02-26T21:19:55.569Z,52.28
2019-02-26T21:22:27.040Z,51.78
2019-02-26T21:24:57.857Z,51.28
2019-02-26T21:27:27.846Z,51.57
2019-02-26T21:29:59.264Z,51.69
2019-02-26T21:32:28.521Z,51.04
2019-02-26T21:34:59.218Z,51.69
2019-02-26T21:37:32.625Z,51.46
2019-02-26T21:39:59.527Z,51.86
2019-02-26T21:42:29.580Z,51.52
2019-02-26T21:44:58.950Z,51.24
2019-02-26T21:47:28.446Z,51.64
2019-02-26T21:49:57.743Z,51.10
2019-02-26T21:52:27.167Z,51.26
2019-02-26T21:54:58.133Z,50.44
2019-02-26T21:57:27.647Z,51.19
2019-02-26T21:59:56.908Z,50.56
2019-02-26T22:02:26.423Z,49.87
2019-02-26T22:04:55.698Z,50.02
2019-02-26T22:07:25.201Z,50.02
2019-02-26T22:09:54.499Z,51.45
2019-02-26T22:12:24.113Z,51.18
2019-02-26T22:14:54.072Z,50.65
2019-02-26T22:17:25.211Z,50.04
2019-02-26T22:19:54.309Z,50.25
2019-02-26T22:22:26.225Z,50.18
2019-02-26T22:24:57.781Z,50.51
2019-02-26T22:27:27.258Z,51.46
2019-02-26T22:29:56.669Z,52.80
2019-02-26T22:32:27.806Z,51.83
2019-02-26T22:34:58.384Z,51.32
2019-02-26T22:37:27.646Z,51.00
2019-02-26T22:39:57.074Z,51.56
2019-02-26T22:42:26.598Z,50.34
2019-02-26T22:44:56.180Z,50.76
2019-02-26T22:47:25.449Z,51.75
2019-02-26T22:49:54.742Z,51.82
2019-02-26T22:52:24.757Z,52.02
2019-02-26T22:54:55.632Z,51.69
2019-02-26T22:57:24.913Z,51.63
2019-02-26T22:59:54.156Z,52.25
2019-02-26T23:02:24.329Z,53.02
2019-02-26T23:04:54.312Z,53.34
2019-02-26T23:07:24.265Z,53.62
2019-02-26T23:09:55.286Z,53.86
2019-02-26T23:12:24.864Z,53.72
2019-02-26T23:14:54.661Z,53.52
2019-02-26T23:17:24.862Z,53.06
2019-02-26T23:19:55.177Z,52.65
2019-02-26T23:22:25.046Z,52.37
2019-02-26T23:24:54.455Z,52.25
2019-02-26T23:27:23.758Z,52.11
2019-02-26T23:29:53.257Z,51.94
2019-02-26T23:32:23.430Z,51.86
2019-02-26T23:35:08.772Z,52.78
2019-02-26T23:37:38.371Z,52.21
2019-02-26T23:40:09.022Z,51.26
2019-02-26T23:42:39.080Z,52.16
2019-02-26T23:45:09.527Z,52.61
2019-02-26T23:47:39.173Z,53.36
2019-02-26T23:50:08.879Z,53.33
2019-02-26T23:52:38.136Z,53.49
2019-02-26T23:55:13.108Z,52.81
2019-02-26T23:57:40.011Z,51.76
